Impacts TAF Board INFO
FOR SITUATIONAL AWARENESS. NOT TO BE USED FOR FLIGHT PLANNING PURPOSES.
IDs:

KLAX - Los Angeles Intl, CA, US

Issued at 0537 UTC 22 Sep 2017
Updated at 0942 UTC 22 Sep 2017
Potential Impact None Slight Moderate High
Time0853Z 22/10Z 22/11Z 22/12Z 22/13Z 22/14Z 22/15Z 22/16Z 22/17Z 22/18Z 22/19Z 22/20Z 22/21Z 22/22Z>>
Type OBS PRVL PRVL PRVL PRVL PRVL PRVL PRVL PRVL PRVL PRVL PRVL PRVL PRVL
VIS 10 >6 >6 >6 >6 >6 >6 >6 >6 >6 >6 >6 >6 >6
CIG -- -- -- -- -- -- -- -- -- -- -- -- -- --
Cover CLR SCT SCT SCT SCT SCT SCT SCT SCT SCT SCT SCT SKC SKC
FltCat VFR VFR VFR VFR VFR VFR VFR VFR VFR VFR VFR VFR VFR VFR
WX -- -- -- -- -- -- -- -- -- -- -- -- -- --
WDir 80 VRB VRB VRB VRB VRB VRB VRB VRB 260 260 260 260 260
WSpd 7 3 3 3 3 3 3 3 3 10 10 10 15 15
WGst -- -- -- -- -- -- -- -- -- -- -- -- -- --

Raw TAF
KLAX 220537Z 2206/2312 08006KT P6SM FEW040
  FM220900 VRB03KT P6SM SCT025
  FM221800 26010KT P6SM SCT025
  FM222100 26015KT P6SM SKC
  FM230400 26009KT P6SM SKC
  FM230900 VRB03KT P6SM SCT025


Raw METAR
KLAX 220853Z 08007KT 10SM CLR 16/12 A2984 RMK AO2 SLP100 T01610122 53001
KLAX 220753Z 06008KT 10SM CLR 17/13 A2983 RMK AO2 SLP098 T01720128 402170167
KLAX 220653Z 07007KT 10SM FEW040 17/12 A2983 RMK AO2 SLP098 T01720122

METAR Board
Radar Display
Forecast Discussion

FOR SITUATIONAL AWARENESS. NOT TO BE USED FOR FLIGHT PLANNING PURPOSES.